sensor_id;sensor_type;location;lat;lon;timestamp;P1;durP1;ratioP1;P2;durP2;ratioP2
15799;SDS011;8002;51.196;7.010;2024-03-23T00:52:53;6.03;;;2.97;;
15799;SDS011;8002;51.196;7.010;2024-03-23T00:55:18;6.40;;;2.73;;
15799;SDS011;8002;51.196;7.010;2024-03-23T00:57:45;7.50;;;3.17;;
15799;SDS011;8002;51.196;7.010;2024-03-23T01:00:11;5.70;;;3.17;;
15799;SDS011;8002;51.196;7.010;2024-03-23T01:02:37;5.17;;;2.77;;
15799;SDS011;8002;51.196;7.010;2024-03-23T01:05:03;7.13;;;3.67;;
15799;SDS011;8002;51.196;7.010;2024-03-23T01:07:29;6.20;;;2.83;;
15799;SDS011;8002;51.196;7.010;2024-03-23T01:09:56;4.63;;;2.37;;
15799;SDS011;8002;51.196;7.010;2024-03-23T01:12:22;7.00;;;2.77;;
15799;SDS011;8002;51.196;7.010;2024-03-23T01:14:48;5.40;;;3.20;;
15799;SDS011;8002;51.196;7.010;2024-03-23T01:17:14;4.33;;;2.63;;
15799;SDS011;8002;51.196;7.010;2024-03-23T01:19:39;5.13;;;2.10;;
15799;SDS011;8002;51.196;7.010;2024-03-23T01:22:06;3.87;;;2.00;;
15799;SDS011;8002;51.196;7.010;2024-03-23T01:24:31;7.77;;;2.97;;
15799;SDS011;8002;51.196;7.010;2024-03-23T01:26:59;4.23;;;2.33;;
15799;SDS011;8002;51.196;7.010;2024-03-23T01:29:24;8.00;;;2.30;;
15799;SDS011;8002;51.196;7.010;2024-03-23T01:31:51;5.40;;;2.77;;
15799;SDS011;8002;51.196;7.010;2024-03-23T01:34:16;5.10;;;3.30;;
15799;SDS011;8002;51.196;7.010;2024-03-23T01:36:44;5.07;;;2.40;;
15799;SDS011;8002;51.196;7.010;2024-03-23T01:39:11;7.63;;;2.53;;
15799;SDS011;8002;51.196;7.010;2024-03-23T01:41:37;4.47;;;2.53;;
15799;SDS011;8002;51.196;7.010;2024-03-23T01:44:08;5.90;;;2.73;;
15799;SDS011;8002;51.196;7.010;2024-03-23T01:46:36;6.27;;;2.70;;
15799;SDS011;8002;51.196;7.010;2024-03-23T01:49:01;3.00;;;2.50;;
15799;SDS011;8002;51.196;7.010;2024-03-23T01:51:28;6.80;;;3.17;;
15799;SDS011;8002;51.196;7.010;2024-03-23T01:53:54;4.07;;;2.60;;
15799;SDS011;8002;51.196;7.010;2024-03-23T01:56:20;4.03;;;2.23;;
15799;SDS011;8002;51.196;7.010;2024-03-23T01:58:46;6.17;;;3.17;;
15799;SDS011;8002;51.196;7.010;2024-03-23T02:01:13;4.43;;;2.30;;
15799;SDS011;8002;51.196;7.010;2024-03-23T02:03:39;3.93;;;2.40;;
15799;SDS011;8002;51.196;7.010;2024-03-23T02:06:05;5.67;;;1.90;;
15799;SDS011;8002;51.196;7.010;2024-03-23T02:08:32;3.43;;;1.27;;
15799;SDS011;8002;51.196;7.010;2024-03-23T02:10:59;5.27;;;1.80;;
15799;SDS011;8002;51.196;7.010;2024-03-23T02:13:24;4.03;;;1.70;;
15799;SDS011;8002;51.196;7.010;2024-03-23T02:15:51;3.87;;;1.37;;
15799;SDS011;8002;51.196;7.010;2024-03-23T02:18:17;1.57;;;1.17;;
15799;SDS011;8002;51.196;7.010;2024-03-23T02:20:44;4.30;;;1.87;;
15799;SDS011;8002;51.196;7.010;2024-03-23T02:23:14;4.57;;;1.50;;
15799;SDS011;8002;51.196;7.010;2024-03-23T02:25:40;2.70;;;1.20;;
15799;SDS011;8002;51.196;7.010;2024-03-23T02:28:06;3.73;;;1.43;;
15799;SDS011;8002;51.196;7.010;2024-03-23T02:30:32;3.90;;;1.60;;
15799;SDS011;8002;51.196;7.010;2024-03-23T02:32:57;3.07;;;1.17;;
15799;SDS011;8002;51.196;7.010;2024-03-23T02:35:24;3.30;;;1.50;;
15799;SDS011;8002;51.196;7.010;2024-03-23T02:37:49;3.23;;;1.20;;
15799;SDS011;8002;51.196;7.010;2024-03-23T02:40:17;2.60;;;1.43;;
15799;SDS011;8002;51.196;7.010;2024-03-23T02:42:42;4.17;;;1.67;;
15799;SDS011;8002;51.196;7.010;2024-03-23T02:45:09;3.80;;;1.60;;
15799;SDS011;8002;51.196;7.010;2024-03-23T02:47:34;3.43;;;1.77;;
15799;SDS011;8002;51.196;7.010;2024-03-23T02:50:00;2.63;;;1.90;;
15799;SDS011;8002;51.196;7.010;2024-03-23T02:52:26;5.73;;;2.17;;
15799;SDS011;8002;51.196;7.010;2024-03-23T02:54:52;4.20;;;1.87;;
15799;SDS011;8002;51.196;7.010;2024-03-23T02:57:19;3.57;;;1.90;;
15799;SDS011;8002;51.196;7.010;2024-03-23T02:59:45;3.43;;;1.77;;
15799;SDS011;8002;51.196;7.010;2024-03-23T03:02:11;2.83;;;1.60;;
15799;SDS011;8002;51.196;7.010;2024-03-23T03:04:37;3.53;;;2.10;;
15799;SDS011;8002;51.196;7.010;2024-03-23T03:07:02;3.90;;;1.87;;
15799;SDS011;8002;51.196;7.010;2024-03-23T03:09:29;3.13;;;1.70;;
15799;SDS011;8002;51.196;7.010;2024-03-23T03:11:54;4.70;;;1.80;;
15799;SDS011;8002;51.196;7.010;2024-03-23T03:14:22;3.93;;;1.83;;
15799;SDS011;8002;51.196;7.010;2024-03-23T03:16:47;3.63;;;1.93;;
15799;SDS011;8002;51.196;7.010;2024-03-23T03:19:14;2.40;;;1.67;;
15799;SDS011;8002;51.196;7.010;2024-03-23T03:21:41;4.40;;;2.23;;
15799;SDS011;8002;51.196;7.010;2024-03-23T03:24:07;5.43;;;1.87;;
15799;SDS011;8002;51.196;7.010;2024-03-23T03:26:33;4.57;;;1.43;;
15799;SDS011;8002;51.196;7.010;2024-03-23T03:28:59;4.37;;;1.60;;
15799;SDS011;8002;51.196;7.010;2024-03-23T03:31:26;4.00;;;1.50;;
15799;SDS011;8002;51.196;7.010;2024-03-23T03:33:52;3.17;;;1.70;;
15799;SDS011;8002;51.196;7.010;2024-03-23T03:36:17;3.50;;;1.47;;
15799;SDS011;8002;51.196;7.010;2024-03-23T03:38:44;3.27;;;1.30;;
15799;SDS011;8002;51.196;7.010;2024-03-23T03:41:09;4.73;;;2.30;;
15799;SDS011;8002;51.196;7.010;2024-03-23T03:43:35;8.97;;;2.13;;
15799;SDS011;8002;51.196;7.010;2024-03-23T03:46:01;3.07;;;1.50;;
15799;SDS011;8002;51.196;7.010;2024-03-23T03:48:29;2.73;;;2.00;;
15799;SDS011;8002;51.196;7.010;2024-03-23T03:50:55;4.37;;;1.87;;
15799;SDS011;8002;51.196;7.010;2024-03-23T03:53:21;3.93;;;1.97;;
15799;SDS011;8002;51.196;7.010;2024-03-23T03:55:46;3.47;;;1.60;;
15799;SDS011;8002;51.196;7.010;2024-03-23T03:58:13;4.87;;;2.57;;
15799;SDS011;8002;51.196;7.010;2024-03-23T04:00:38;2.77;;;1.83;;
15799;SDS011;8002;51.196;7.010;2024-03-23T04:03:05;4.60;;;2.20;;
15799;SDS011;8002;51.196;7.010;2024-03-23T04:05:32;6.07;;;2.80;;
15799;SDS011;8002;51.196;7.010;2024-03-23T04:07:58;2.90;;;2.30;;
15799;SDS011;8002;51.196;7.010;2024-03-23T04:10:24;3.73;;;2.60;;
15799;SDS011;8002;51.196;7.010;2024-03-23T04:12:51;5.20;;;3.10;;
15799;SDS011;8002;51.196;7.010;2024-03-23T04:15:17;4.80;;;2.57;;
15799;SDS011;8002;51.196;7.010;2024-03-23T04:17:43;3.67;;;2.80;;
15799;SDS011;8002;51.196;7.010;2024-03-23T04:20:09;7.83;;;2.90;;
15799;SDS011;8002;51.196;7.010;2024-03-23T04:22:37;3.93;;;2.40;;
15799;SDS011;8002;51.196;7.010;2024-03-23T04:25:03;7.37;;;3.50;;
15799;SDS011;8002;51.196;7.010;2024-03-23T04:27:31;4.20;;;2.63;;
15799;SDS011;8002;51.196;7.010;2024-03-23T04:29:57;4.90;;;2.93;;
15799;SDS011;8002;51.196;7.010;2024-03-23T04:32:23;6.13;;;2.97;;
15799;SDS011;8002;51.196;7.010;2024-03-23T04:34:48;5.50;;;3.00;;
15799;SDS011;8002;51.196;7.010;2024-03-23T04:37:14;4.63;;;2.20;;
15799;SDS011;8002;51.196;7.010;2024-03-23T04:39:42;6.67;;;3.07;;
15799;SDS011;8002;51.196;7.010;2024-03-23T04:42:09;4.10;;;3.40;;
15799;SDS011;8002;51.196;7.010;2024-03-23T04:44:35;3.53;;;2.30;;
15799;SDS011;8002;51.196;7.010;2024-03-23T04:47:01;4.20;;;2.63;;
15799;SDS011;8002;51.196;7.010;2024-03-23T04:49:28;4.67;;;2.60;;
15799;SDS011;8002;51.196;7.010;2024-03-23T04:51:54;3.77;;;2.90;;
15799;SDS011;8002;51.196;7.010;2024-03-23T04:54:20;4.30;;;2.77;;
15799;SDS011;8002;51.196;7.010;2024-03-23T04:56:47;3.30;;;2.87;;
15799;SDS011;8002;51.196;7.010;2024-03-23T04:59:13;3.47;;;2.17;;
15799;SDS011;8002;51.196;7.010;2024-03-23T05:01:39;5.47;;;2.63;;
15799;SDS011;8002;51.196;7.010;2024-03-23T05:04:07;4.90;;;2.37;;
15799;SDS011;8002;51.196;7.010;2024-03-23T05:06:32;4.33;;;2.53;;
15799;SDS011;8002;51.196;7.010;2024-03-23T05:08:59;4.37;;;2.50;;
15799;SDS011;8002;51.196;7.010;2024-03-23T05:11:24;3.60;;;2.13;;
15799;SDS011;8002;51.196;7.010;2024-03-23T05:13:52;5.80;;;2.20;;
15799;SDS011;8002;51.196;7.010;2024-03-23T05:16:18;6.67;;;2.53;;
15799;SDS011;8002;51.196;7.010;2024-03-23T05:18:44;4.93;;;2.23;;
15799;SDS011;8002;51.196;7.010;2024-03-23T05:21:09;3.80;;;2.13;;
15799;SDS011;8002;51.196;7.010;2024-03-23T05:23:35;5.63;;;2.10;;
15799;SDS011;8002;51.196;7.010;2024-03-23T05:26:01;5.17;;;2.30;;
15799;SDS011;8002;51.196;7.010;2024-03-23T05:28:27;5.13;;;2.33;;
15799;SDS011;8002;51.196;7.010;2024-03-23T05:30:54;2.97;;;2.13;;
15799;SDS011;8002;51.196;7.010;2024-03-23T05:33:21;6.07;;;2.00;;
15799;SDS011;8002;51.196;7.010;2024-03-23T05:35:47;4.57;;;2.30;;
15799;SDS011;8002;51.196;7.010;2024-03-23T05:38:13;5.33;;;1.93;;
15799;SDS011;8002;51.196;7.010;2024-03-23T05:40:39;6.27;;;3.27;;
15799;SDS011;8002;51.196;7.010;2024-03-23T05:43:05;6.90;;;2.70;;
15799;SDS011;8002;51.196;7.010;2024-03-23T05:45:31;6.23;;;2.60;;
15799;SDS011;8002;51.196;7.010;2024-03-23T05:47:58;5.80;;;2.50;;
15799;SDS011;8002;51.196;7.010;2024-03-23T05:50:24;5.20;;;2.17;;
15799;SDS011;8002;51.196;7.010;2024-03-23T05:52:50;5.40;;;2.27;;
15799;SDS011;8002;51.196;7.010;2024-03-23T05:55:15;3.20;;;2.17;;
15799;SDS011;8002;51.196;7.010;2024-03-23T05:57:42;4.00;;;2.00;;
15799;SDS011;8002;51.196;7.010;2024-03-23T06:00:07;3.37;;;1.90;;
15799;SDS011;8002;51.196;7.010;2024-03-23T06:02:40;5.20;;;2.20;;
15799;SDS011;8002;51.196;7.010;2024-03-23T06:05:07;7.10;;;2.63;;
15799;SDS011;8002;51.196;7.010;2024-03-23T06:07:33;4.70;;;2.50;;
15799;SDS011;8002;51.196;7.010;2024-03-23T06:09:59;6.10;;;2.80;;
15799;SDS011;8002;51.196;7.010;2024-03-23T06:12:25;5.57;;;3.33;;
15799;SDS011;8002;51.196;7.010;2024-03-23T06:14:51;4.43;;;2.43;;
15799;SDS011;8002;51.196;7.010;2024-03-23T06:17:17;5.27;;;2.90;;
15799;SDS011;8002;51.196;7.010;2024-03-23T06:19:43;7.87;;;3.00;;
15799;SDS011;8002;51.196;7.010;2024-03-23T06:22:10;5.93;;;3.00;;
15799;SDS011;8002;51.196;7.010;2024-03-23T06:24:36;4.03;;;2.60;;
15799;SDS011;8002;51.196;7.010;2024-03-23T06:27:02;7.63;;;2.90;;
15799;SDS011;8002;51.196;7.010;2024-03-23T06:29:28;4.67;;;2.63;;
15799;SDS011;8002;51.196;7.010;2024-03-23T06:31:54;6.47;;;2.97;;
15799;SDS011;8002;51.196;7.010;2024-03-23T06:34:20;5.93;;;3.83;;
15799;SDS011;8002;51.196;7.010;2024-03-23T06:36:46;4.93;;;2.40;;
15799;SDS011;8002;51.196;7.010;2024-03-23T06:39:13;3.70;;;2.10;;
15799;SDS011;8002;51.196;7.010;2024-03-23T06:41:40;6.63;;;2.67;;
15799;SDS011;8002;51.196;7.010;2024-03-23T06:44:05;5.27;;;3.30;;
15799;SDS011;8002;51.196;7.010;2024-03-23T06:46:32;5.50;;;2.97;;
15799;SDS011;8002;51.196;7.010;2024-03-23T06:48:57;5.73;;;3.43;;
15799;SDS011;8002;51.196;7.010;2024-03-23T06:51:23;7.97;;;3.57;;
15799;SDS011;8002;51.196;7.010;2024-03-23T06:53:49;7.33;;;4.07;;
15799;SDS011;8002;51.196;7.010;2024-03-23T06:56:17;5.97;;;3.50;;
15799;SDS011;8002;51.196;7.010;2024-03-23T06:58:42;6.63;;;3.00;;
15799;SDS011;8002;51.196;7.010;2024-03-23T07:01:08;7.17;;;3.03;;
15799;SDS011;8002;51.196;7.010;2024-03-23T07:03:34;6.00;;;3.07;;
15799;SDS011;8002;51.196;7.010;2024-03-23T07:06:00;6.77;;;3.40;;
15799;SDS011;8002;51.196;7.010;2024-03-23T07:08:25;9.40;;;3.83;;
15799;SDS011;8002;51.196;7.010;2024-03-23T07:10:52;6.30;;;3.57;;
15799;SDS011;8002;51.196;7.010;2024-03-23T07:13:18;9.97;;;4.23;;
15799;SDS011;8002;51.196;7.010;2024-03-23T07:15:50;7.63;;;4.63;;
15799;SDS011;8002;51.196;7.010;2024-03-23T07:18:16;6.57;;;3.83;;
15799;SDS011;8002;51.196;7.010;2024-03-23T07:20:42;6.20;;;3.80;;
15799;SDS011;8002;51.196;7.010;2024-03-23T07:23:07;9.03;;;4.10;;
15799;SDS011;8002;51.196;7.010;2024-03-23T07:25:35;5.33;;;4.20;;
15799;SDS011;8002;51.196;7.010;2024-03-23T07:28:00;5.80;;;3.70;;
15799;SDS011;8002;51.196;7.010;2024-03-23T07:30:28;7.90;;;3.83;;
15799;SDS011;8002;51.196;7.010;2024-03-23T07:32:53;6.43;;;3.67;;
15799;SDS011;8002;51.196;7.010;2024-03-23T07:35:20;7.47;;;4.40;;
15799;SDS011;8002;51.196;7.010;2024-03-23T07:37:45;8.33;;;4.60;;
15799;SDS011;8002;51.196;7.010;2024-03-23T07:40:12;8.33;;;3.87;;
15799;SDS011;8002;51.196;7.010;2024-03-23T07:42:37;6.77;;;3.77;;
15799;SDS011;8002;51.196;7.010;2024-03-23T07:45:04;7.03;;;4.37;;
15799;SDS011;8002;51.196;7.010;2024-03-23T07:47:31;6.03;;;3.57;;
15799;SDS011;8002;51.196;7.010;2024-03-23T07:49:57;8.73;;;3.63;;
15799;SDS011;8002;51.196;7.010;2024-03-23T07:52:22;5.60;;;3.80;;
15799;SDS011;8002;51.196;7.010;2024-03-23T07:54:49;5.77;;;3.83;;
15799;SDS011;8002;51.196;7.010;2024-03-23T07:57:14;6.90;;;3.67;;
15799;SDS011;8002;51.196;7.010;2024-03-23T07:59:40;7.90;;;3.43;;
15799;SDS011;8002;51.196;7.010;2024-03-23T08:02:06;7.43;;;3.37;;
15799;SDS011;8002;51.196;7.010;2024-03-23T08:04:33;6.57;;;3.60;;
15799;SDS011;8002;51.196;7.010;2024-03-23T08:06:59;6.93;;;3.73;;
15799;SDS011;8002;51.196;7.010;2024-03-23T08:09:25;8.33;;;4.20;;
15799;SDS011;8002;51.196;7.010;2024-03-23T08:11:50;5.93;;;3.30;;
15799;SDS011;8002;51.196;7.010;2024-03-23T08:14:17;6.33;;;3.47;;
15799;SDS011;8002;51.196;7.010;2024-03-23T08:16:42;6.63;;;3.60;;
15799;SDS011;8002;51.196;7.010;2024-03-23T08:19:13;4.63;;;3.80;;
15799;SDS011;8002;51.196;7.010;2024-03-23T08:21:40;6.13;;;3.90;;
15799;SDS011;8002;51.196;7.010;2024-03-23T08:24:06;6.03;;;3.77;;
15799;SDS011;8002;51.196;7.010;2024-03-23T08:26:32;6.83;;;3.87;;
15799;SDS011;8002;51.196;7.010;2024-03-23T08:28:58;6.77;;;3.90;;
15799;SDS011;8002;51.196;7.010;2024-03-23T08:31:24;6.07;;;3.83;;
15799;SDS011;8002;51.196;7.010;2024-03-23T08:33:50;6.20;;;3.40;;
15799;SDS011;8002;51.196;7.010;2024-03-23T08:36:15;5.63;;;3.40;;
15799;SDS011;8002;51.196;7.010;2024-03-23T08:38:43;6.13;;;3.53;;
15799;SDS011;8002;51.196;7.010;2024-03-23T08:41:09;8.57;;;3.43;;
15799;SDS011;8002;51.196;7.010;2024-03-23T08:43:36;6.70;;;3.53;;
15799;SDS011;8002;51.196;7.010;2024-03-23T08:46:05;7.23;;;3.00;;
15799;SDS011;8002;51.196;7.010;2024-03-23T08:48:31;6.47;;;3.30;;
15799;SDS011;8002;51.196;7.010;2024-03-23T08:51:00;6.80;;;3.20;;
15799;SDS011;8002;51.196;7.010;2024-03-23T08:53:27;4.63;;;3.00;;
15799;SDS011;8002;51.196;7.010;2024-03-23T08:55:54;6.40;;;2.80;;
15799;SDS011;8002;51.196;7.010;2024-03-23T08:58:20;5.93;;;3.27;;
15799;SDS011;8002;51.196;7.010;2024-03-23T09:00:46;5.67;;;2.57;;
15799;SDS011;8002;51.196;7.010;2024-03-23T09:03:12;5.40;;;2.60;;
15799;SDS011;8002;51.196;7.010;2024-03-23T09:05:38;7.23;;;2.43;;
15799;SDS011;8002;51.196;7.010;2024-03-23T09:08:05;5.37;;;2.87;;
15799;SDS011;8002;51.196;7.010;2024-03-23T09:10:31;5.87;;;2.33;;
15799;SDS011;8002;51.196;7.010;2024-03-23T09:12:59;5.70;;;2.20;;
15799;SDS011;8002;51.196;7.010;2024-03-23T09:15:24;4.27;;;1.90;;
15799;SDS011;8002;51.196;7.010;2024-03-23T09:17:50;4.70;;;1.70;;
15799;SDS011;8002;51.196;7.010;2024-03-23T09:20:16;3.60;;;1.80;;
15799;SDS011;8002;51.196;7.010;2024-03-23T09:22:42;3.60;;;2.00;;
15799;SDS011;8002;51.196;7.010;2024-03-23T09:25:08;3.70;;;2.10;;
15799;SDS011;8002;51.196;7.010;2024-03-23T09:27:34;4.93;;;1.77;;
15799;SDS011;8002;51.196;7.010;2024-03-23T09:30:00;4.33;;;1.90;;
15799;SDS011;8002;51.196;7.010;2024-03-23T09:32:27;2.67;;;1.87;;
15799;SDS011;8002;51.196;7.010;2024-03-23T09:34:53;4.93;;;2.00;;
15799;SDS011;8002;51.196;7.010;2024-03-23T09:37:19;6.77;;;2.00;;
15799;SDS011;8002;51.196;7.010;2024-03-23T09:39:44;6.37;;;2.40;;
15799;SDS011;8002;51.196;7.010;2024-03-23T09:42:11;7.60;;;3.00;;
15799;SDS011;8002;51.196;7.010;2024-03-23T09:44:36;8.67;;;2.40;;
15799;SDS011;8002;51.196;7.010;2024-03-23T09:47:04;6.43;;;2.80;;
15799;SDS011;8002;51.196;7.010;2024-03-23T09:49:30;3.17;;;1.57;;
15799;SDS011;8002;51.196;7.010;2024-03-23T09:51:57;4.80;;;2.00;;
15799;SDS011;8002;51.196;7.010;2024-03-23T09:54:23;5.73;;;2.33;;
15799;SDS011;8002;51.196;7.010;2024-03-23T09:56:49;2.43;;;1.83;;
15799;SDS011;8002;51.196;7.010;2024-03-23T09:59:14;4.70;;;1.93;;
15799;SDS011;8002;51.196;7.010;2024-03-23T10:01:40;4.23;;;1.87;;
15799;SDS011;8002;51.196;7.010;2024-03-23T10:04:07;3.37;;;1.97;;
15799;SDS011;8002;51.196;7.010;2024-03-23T10:06:34;5.23;;;2.10;;
15799;SDS011;8002;51.196;7.010;2024-03-23T10:09:00;3.90;;;2.10;;
15799;SDS011;8002;51.196;7.010;2024-03-23T10:11:26;4.90;;;2.13;;
15799;SDS011;8002;51.196;7.010;2024-03-23T10:13:52;3.60;;;2.00;;
15799;SDS011;8002;51.196;7.010;2024-03-23T10:16:22;5.80;;;2.30;;
15799;SDS011;8002;51.196;7.010;2024-03-23T10:18:47;5.60;;;2.10;;
15799;SDS011;8002;51.196;7.010;2024-03-23T10:21:15;4.40;;;2.13;;
15799;SDS011;8002;51.196;7.010;2024-03-23T10:23:42;4.17;;;1.97;;
15799;SDS011;8002;51.196;7.010;2024-03-23T10:26:15;6.80;;;2.40;;
15799;SDS011;8002;51.196;7.010;2024-03-23T10:28:53;4.70;;;1.73;;
15799;SDS011;8002;51.196;7.010;2024-03-23T10:31:22;2.73;;;1.67;;
15799;SDS011;8002;51.196;7.010;2024-03-23T10:33:47;4.00;;;1.87;;
15799;SDS011;8002;51.196;7.010;2024-03-23T10:36:14;3.83;;;1.63;;
15799;SDS011;8002;51.196;7.010;2024-03-23T10:38:41;4.83;;;2.23;;
15799;SDS011;8002;51.196;7.010;2024-03-23T10:41:08;3.83;;;1.60;;
15799;SDS011;8002;51.196;7.010;2024-03-23T10:43:34;5.40;;;1.70;;
15799;SDS011;8002;51.196;7.010;2024-03-23T10:46:01;2.72;;;1.48;;
15799;SDS011;8002;51.196;7.010;2024-03-23T10:48:27;3.87;;;1.13;;
15799;SDS011;8002;51.196;7.010;2024-03-23T10:50:53;1.27;;;0.70;;
15799;SDS011;8002;51.196;7.010;2024-03-23T10:53:19;1.93;;;0.77;;
15799;SDS011;8002;51.196;7.010;2024-03-23T10:55:49;3.27;;;0.87;;
15799;SDS011;8002;51.196;7.010;2024-03-23T10:58:14;1.13;;;0.60;;
15799;SDS011;8002;51.196;7.010;2024-03-23T11:00:42;1.37;;;0.80;;
15799;SDS011;8002;51.196;7.010;2024-03-23T11:05:49;2.83;;;0.90;;
15799;SDS011;8002;51.196;7.010;2024-03-23T11:08:27;2.50;;;0.90;;
15799;SDS011;8002;51.196;7.010;2024-03-23T11:11:05;1.80;;;0.60;;
15799;SDS011;8002;51.196;7.010;2024-03-23T11:13:36;1.53;;;0.97;;
15799;SDS011;8002;51.196;7.010;2024-03-23T11:16:12;2.93;;;0.70;;
15799;SDS011;8002;51.196;7.010;2024-03-23T11:18:37;1.07;;;0.60;;
15799;SDS011;8002;51.196;7.010;2024-03-23T11:21:04;1.27;;;0.80;;
15799;SDS011;8002;51.196;7.010;2024-03-23T11:23:29;1.13;;;0.70;;
15799;SDS011;8002;51.196;7.010;2024-03-23T11:25:55;0.83;;;0.50;;
15799;SDS011;8002;51.196;7.010;2024-03-23T11:28:22;0.80;;;0.60;;
15799;SDS011;8002;51.196;7.010;2024-03-23T11:30:48;1.43;;;0.40;;
15799;SDS011;8002;51.196;7.010;2024-03-23T11:33:14;1.00;;;0.80;;
15799;SDS011;8002;51.196;7.010;2024-03-23T11:35:40;0.90;;;0.80;;
15799;SDS011;8002;51.196;7.010;2024-03-23T11:38:07;2.17;;;1.00;;
15799;SDS011;8002;51.196;7.010;2024-03-23T11:40:34;1.10;;;1.00;;
15799;SDS011;8002;51.196;7.010;2024-03-23T11:43:00;1.70;;;0.80;;
15799;SDS011;8002;51.196;7.010;2024-03-23T11:45:28;1.33;;;0.90;;
15799;SDS011;8002;51.196;7.010;2024-03-23T11:48:04;1.70;;;0.93;;
15799;SDS011;8002;51.196;7.010;2024-03-23T11:50:30;0.73;;;0.67;;
15799;SDS011;8002;51.196;7.010;2024-03-23T11:53:13;1.30;;;0.90;;
15799;SDS011;8002;51.196;7.010;2024-03-23T11:55:43;1.60;;;0.55;;
15799;SDS011;8002;51.196;7.010;2024-03-23T11:58:09;0.80;;;0.55;;
15799;SDS011;8002;51.196;7.010;2024-03-23T12:00:37;3.22;;;1.10;;
15799;SDS011;8002;51.196;7.010;2024-03-23T12:03:02;1.17;;;0.80;;
15799;SDS011;8002;51.196;7.010;2024-03-23T12:05:29;2.60;;;1.00;;
15799;SDS011;8002;51.196;7.010;2024-03-23T12:07:54;2.95;;;1.30;;
15799;SDS011;8002;51.196;7.010;2024-03-23T12:10:21;1.45;;;1.20;;
15799;SDS011;8002;51.196;7.010;2024-03-23T12:12:46;0.88;;;0.45;;
15799;SDS011;8002;51.196;7.010;2024-03-23T12:15:12;1.10;;;0.50;;
15799;SDS011;8002;51.196;7.010;2024-03-23T12:17:41;0.43;;;0.40;;
15799;SDS011;8002;51.196;7.010;2024-03-23T12:20:07;1.70;;;0.50;;
15799;SDS011;8002;51.196;7.010;2024-03-23T12:22:33;1.33;;;0.43;;
15799;SDS011;8002;51.196;7.010;2024-03-23T12:25:00;0.52;;;0.40;;
15799;SDS011;8002;51.196;7.010;2024-03-23T12:27:25;0.43;;;0.40;;
15799;SDS011;8002;51.196;7.010;2024-03-23T12:29:52;1.10;;;0.60;;
15799;SDS011;8002;51.196;7.010;2024-03-23T12:32:17;1.43;;;0.60;;
15799;SDS011;8002;51.196;7.010;2024-03-23T12:34:46;1.77;;;0.70;;
15799;SDS011;8002;51.196;7.010;2024-03-23T12:37:12;1.13;;;0.60;;
15799;SDS011;8002;51.196;7.010;2024-03-23T12:39:38;0.87;;;0.60;;
15799;SDS011;8002;51.196;7.010;2024-03-23T12:42:04;1.10;;;0.53;;
15799;SDS011;8002;51.196;7.010;2024-03-23T12:44:30;1.23;;;0.70;;
15799;SDS011;8002;51.196;7.010;2024-03-23T12:46:56;1.10;;;0.50;;
15799;SDS011;8002;51.196;7.010;2024-03-23T12:49:22;0.80;;;0.60;;
15799;SDS011;8002;51.196;7.010;2024-03-23T12:51:53;2.50;;;1.17;;
15799;SDS011;8002;51.196;7.010;2024-03-23T12:54:19;1.43;;;0.60;;
15799;SDS011;8002;51.196;7.010;2024-03-23T12:56:45;1.03;;;0.77;;
15799;SDS011;8002;51.196;7.010;2024-03-23T12:59:11;2.50;;;0.70;;
15799;SDS011;8002;51.196;7.010;2024-03-23T13:01:38;0.70;;;0.70;;
15799;SDS011;8002;51.196;7.010;2024-03-23T13:04:04;1.00;;;0.60;;
15799;SDS011;8002;51.196;7.010;2024-03-23T13:06:29;1.87;;;0.80;;
15799;SDS011;8002;51.196;7.010;2024-03-23T13:09:00;0.63;;;0.63;;
15799;SDS011;8002;51.196;7.010;2024-03-23T13:11:26;0.60;;;0.40;;
15799;SDS011;8002;51.196;7.010;2024-03-23T13:13:52;1.30;;;0.80;;
15799;SDS011;8002;51.196;7.010;2024-03-23T13:16:18;0.93;;;0.60;;
15799;SDS011;8002;51.196;7.010;2024-03-23T13:18:44;1.48;;;0.63;;
15799;SDS011;8002;51.196;7.010;2024-03-23T13:21:10;1.48;;;0.88;;
15799;SDS011;8002;51.196;7.010;2024-03-23T13:23:38;0.90;;;0.70;;
15799;SDS011;8002;51.196;7.010;2024-03-23T13:26:08;1.15;;;0.60;;
15799;SDS011;8002;51.196;7.010;2024-03-23T13:28:34;2.50;;;0.90;;
15799;SDS011;8002;51.196;7.010;2024-03-23T13:31:01;1.13;;;0.60;;
15799;SDS011;8002;51.196;7.010;2024-03-23T13:33:28;0.40;;;0.40;;
15799;SDS011;8002;51.196;7.010;2024-03-23T13:35:55;1.17;;;0.55;;
15799;SDS011;8002;51.196;7.010;2024-03-23T13:38:21;1.17;;;0.57;;
15799;SDS011;8002;51.196;7.010;2024-03-23T13:40:51;0.90;;;0.50;;
15799;SDS011;8002;51.196;7.010;2024-03-23T13:43:18;0.98;;;0.50;;
15799;SDS011;8002;51.196;7.010;2024-03-23T13:45:44;0.40;;;0.30;;
15799;SDS011;8002;51.196;7.010;2024-03-23T13:48:10;0.40;;;0.40;;
15799;SDS011;8002;51.196;7.010;2024-03-23T13:50:36;1.80;;;0.70;;
15799;SDS011;8002;51.196;7.010;2024-03-23T13:53:01;1.98;;;0.50;;
15799;SDS011;8002;51.196;7.010;2024-03-23T13:55:28;1.73;;;0.90;;
15799;SDS011;8002;51.196;7.010;2024-03-23T13:57:53;2.42;;;0.60;;
15799;SDS011;8002;51.196;7.010;2024-03-23T14:00:21;1.55;;;0.80;;
15799;SDS011;8002;51.196;7.010;2024-03-23T14:02:46;2.08;;;0.90;;
15799;SDS011;8002;51.196;7.010;2024-03-23T14:05:13;1.23;;;0.80;;
15799;SDS011;8002;51.196;7.010;2024-03-23T14:07:38;1.67;;;0.90;;
15799;SDS011;8002;51.196;7.010;2024-03-23T14:10:05;2.17;;;0.82;;
15799;SDS011;8002;51.196;7.010;2024-03-23T14:12:31;2.42;;;1.20;;
15799;SDS011;8002;51.196;7.010;2024-03-23T14:14:57;2.22;;;0.80;;
15799;SDS011;8002;51.196;7.010;2024-03-23T14:17:25;1.25;;;0.70;;
15799;SDS011;8002;51.196;7.010;2024-03-23T14:19:51;1.75;;;0.90;;
15799;SDS011;8002;51.196;7.010;2024-03-23T14:22:17;0.97;;;0.70;;
15799;SDS011;8002;51.196;7.010;2024-03-23T14:24:44;2.50;;;1.00;;
15799;SDS011;8002;51.196;7.010;2024-03-23T14:27:19;1.43;;;0.70;;
15799;SDS011;8002;51.196;7.010;2024-03-23T14:29:47;2.30;;;0.75;;
15799;SDS011;8002;51.196;7.010;2024-03-23T14:32:13;2.88;;;1.05;;
15799;SDS011;8002;51.196;7.010;2024-03-23T14:34:41;2.13;;;1.30;;
15799;SDS011;8002;51.196;7.010;2024-03-23T14:37:07;2.67;;;0.98;;
15799;SDS011;8002;51.196;7.010;2024-03-23T14:39:32;1.75;;;0.98;;
15799;SDS011;8002;51.196;7.010;2024-03-23T14:42:00;1.05;;;0.80;;
15799;SDS011;8002;51.196;7.010;2024-03-23T14:44:25;2.60;;;0.82;;
15799;SDS011;8002;51.196;7.010;2024-03-23T14:46:52;1.60;;;0.90;;
15799;SDS011;8002;51.196;7.010;2024-03-23T14:49:18;3.57;;;1.10;;
15799;SDS011;8002;51.196;7.010;2024-03-23T14:51:46;1.20;;;0.90;;
15799;SDS011;8002;51.196;7.010;2024-03-23T14:54:11;0.90;;;0.70;;
15799;SDS011;8002;51.196;7.010;2024-03-23T14:56:38;1.17;;;0.80;;
15799;SDS011;8002;51.196;7.010;2024-03-23T14:59:03;4.17;;;1.03;;
15799;SDS011;8002;51.196;7.010;2024-03-23T15:01:31;1.70;;;0.70;;
15799;SDS011;8002;51.196;7.010;2024-03-23T15:03:57;1.03;;;0.60;;
15799;SDS011;8002;51.196;7.010;2024-03-23T15:06:23;0.73;;;0.53;;
15799;SDS011;8002;51.196;7.010;2024-03-23T15:08:50;1.30;;;0.60;;
15799;SDS011;8002;51.196;7.010;2024-03-23T15:11:16;0.70;;;0.60;;
15799;SDS011;8002;51.196;7.010;2024-03-23T15:13:44;0.43;;;0.40;;
15799;SDS011;8002;51.196;7.010;2024-03-23T15:16:16;1.27;;;0.53;;
15799;SDS011;8002;51.196;7.010;2024-03-23T15:18:41;2.17;;;0.70;;
15799;SDS011;8002;51.196;7.010;2024-03-23T15:21:08;1.10;;;0.60;;
15799;SDS011;8002;51.196;7.010;2024-03-23T15:23:35;1.90;;;0.70;;
15799;SDS011;8002;51.196;7.010;2024-03-23T15:26:03;1.00;;;0.60;;
15799;SDS011;8002;51.196;7.010;2024-03-23T15:28:31;2.53;;;1.00;;
15799;SDS011;8002;51.196;7.010;2024-03-23T15:31:07;0.60;;;0.60;;
15799;SDS011;8002;51.196;7.010;2024-03-23T15:33:32;0.80;;;0.50;;
15799;SDS011;8002;51.196;7.010;2024-03-23T15:35:59;1.50;;;0.70;;
15799;SDS011;8002;51.196;7.010;2024-03-23T15:38:24;1.37;;;0.60;;
15799;SDS011;8002;51.196;7.010;2024-03-23T15:40:51;2.80;;;0.93;;
15799;SDS011;8002;51.196;7.010;2024-03-23T15:43:17;0.70;;;0.40;;
15799;SDS011;8002;51.196;7.010;2024-03-23T15:45:44;1.80;;;0.63;;
15799;SDS011;8002;51.196;7.010;2024-03-23T15:48:09;0.87;;;0.73;;
15799;SDS011;8002;51.196;7.010;2024-03-23T15:50:36;1.40;;;0.60;;